Haileyville, OK (74546)

1:28 AM CDT on July 29, 2015 (GMT -0500)
McAlester Regional | | Change Station
CLOSE
Current Station
Airport
Location: McAlester,
Elevation: 768 ft
Nearby Weather Stations
Active Advisory: Heat Advisory

Elev 768 ft 34.88 °N, 95.78 °W | Updated 35 minutes ago

Clear
Clear
76 °F
Feels Like 76 °F
N
0
Wind Variable Wind from North

Today
High -- | Low -- °F
--% Chance of Precip.
Yesterday
High -- | Low -- °F
Precip. -- in
6:29 AM 8:27 PM
Waxing Gibbous, 94% visible
Pressure 29.97 in
Visibility 10.0 miles
Clouds Few 11000 ft
Dew Point 68 °F
Humidity 76%
Rainfall 0.00 in
Snow Depth Not available.
UV 0 out of 12
Pollen 5.10 out of 12
Air Quality Not available.
Flu Activity Not available.
METAR KMLC 290553Z AUTO 00000KT 10SM FEW110 24/20 A3000 RMK AO2 SLP149 T02440200 10339 20244 403560244 51024

More Conditions Fewer Conditions

Pressure 29.97 in
Visibility 10.0 miles
Clouds Few 11000 ft
Dew Point 68 °F
Humidity 76%
Rainfall 0.00 in
Snow Depth Not available.
UV 0 out of 12
Pollen 5.10 out of 12
Air Quality Not available.
Flu Activity Not available.
METAR KMLC 290553Z AUTO 00000KT 10SM FEW110 24/20 A3000 RMK AO2 SLP149 T02440200 10339 20244 403560244 51024

More Conditions Fewer Conditions

10-Day Weather Forecast

×

Almanac

Astronomy

Jul. 29, 2015 Rise Set
Actual Time
Civil Twilight
Nautical Twilight
Astronomical Twilight
Moon
Length of Visible Light
Length of Day
Tomorrow will be .
, % of the Moon is Illuminated

Today's Extremes

State Highs State Lows

Community

WunderPhotos

Upload Photos

1,842,061 photos uploaded!

WunderBlogs® & News

Nearby

Air Quality

  Air Quality AQ Index Pollutant
Not available.

Snow Depth

Station Depth Elevation

Earthquake Activity

City Distance Mag. Time & Date
Minimum magnitude displayed is 2.5.

Coastal Water Temperatures

Place Temperature

Stations

Nearby Weather Stations

Station Location Temp. Windchill Dew Point Humidity Wind Precip. Elev Updated Type
                   
Heat Advisory
Statement as of 9:43 PM CDT on July 28, 2015

... Heat advisory in effect from 11 am to 8 PM CDT Wednesday...

* a dangerous combination of heat and humidity will develop
again on Wednesday. Heat index values in the 105 to 110
degree range will be common.

* Impacts... the combination of heat and humidity will create a
situation in which heat related illnesses are possible.

Precautionary/preparedness actions...

* drink plenty of fluids... stay in an air-conditioned room...
stay out of the sun... and check up on relatives and neighbors.
Never leave anyone in a closed... parked vehicle... temperatures
inside can reach over 150 degrees quickly... resulting in
death.